Auburn, NY (13021)

6:39 PM EST on February 05, 2016 (GMT -0500)
Pinfeather Place Fleming, NY | | Change Station
CLOSE
Current Station
Personal Weather Station
Location: Auburn, NY
Elevation: 741 ft
Nearby Weather Stations

Elev 741 ft 42.87 °N, 76.54 °W | Updated 14 seconds ago

Mostly Cloudy
Mostly Cloudy
27.0 °F
Feels Like 27 °F
N
0.0
Wind Variable Wind from South
Gusts 0.0 mph

Today
High -- | Low -- °F
--% Chance of Precip.
Yesterday
High -- | Low -- °F
Precip. -- in
Pressure 30.31 in
Visibility 10.0 miles
Clouds Scattered Clouds 3500 ft
Scattered Clouds 26000 ft
Windchill 27 °F
Dew Point 14 °F
Humidity 58%
Rainfall 0.00 in
Snow Depth Not available.
7:17 AM 5:23 PM
Waning Crescent, 9% visible
METAR KSYR 052254Z 30006KT 10SM SCT035 SCT260 M03/M08 A3030 RMK AO2 SLP263 T10281083 $
Pressure 30.31 in
Visibility 10.0 miles
Clouds Scattered Clouds 3500 ft
Scattered Clouds 26000 ft
Windchill 27 °F
Dew Point 14 °F
Humidity 58%
Rainfall 0.00 in
Snow Depth Not available.
7:17 AM 5:23 PM
Waning Crescent, 9% visible
METAR KSYR 052254Z 30006KT 10SM SCT035 SCT260 M03/M08 A3030 RMK AO2 SLP263 T10281083 $

10-Day Weather Forecast

Almanac

Astronomy

Feb. 05, 2016 Rise Set
Actual Time
Civil Twilight
Nautical Twilight
Astronomical Twilight
Moon
Length of Visible Light
Length of Day
Tomorrow will be .
, % of the Moon is Illuminated

Today's Extremes

State Highs State Lows

Community

WunderPhotos

Upload Photos

1,890,881 photos uploaded!

WunderBlog® & News

Nearby

Air Quality

  Air Quality AQ Index Pollutant
Not available.

Snow Depth

Station Depth Elevation

Earthquake Activity

City Distance Mag. Time & Date
Minimum magnitude displayed is 2.5.

Coastal Water Temperatures

Place Temperature

Stations

Nearby Weather Stations

Station Location Temp. Windchill Dew Point Humidity Wind Precip. Elev Updated Type
                   

Watches & Warnings

There are currently no watches in effect.